createdAt,value
2018-06-18T00:00:05.431Z,11.88
2018-06-18T00:06:00.412Z,10.7
2018-06-18T00:11:55.417Z,11.72
2018-06-18T00:17:50.458Z,11.26
2018-06-18T00:23:45.470Z,14.5
2018-06-18T00:29:40.420Z,13.42
2018-06-18T00:35:35.471Z,11
2018-06-18T00:41:30.514Z,13.76
2018-06-18T00:47:25.503Z,14.33
2018-06-18T00:53:20.489Z,13.86
2018-06-18T00:59:15.507Z,13.87
2018-06-18T01:05:10.474Z,11.63
2018-06-18T01:11:05.463Z,12
2018-06-18T01:17:00.597Z,13.23
2018-06-18T01:22:55.490Z,13.75
2018-06-18T01:28:50.454Z,12.11
2018-06-18T01:34:45.514Z,10.77
2018-06-18T01:40:40.514Z,13.82
2018-06-18T01:46:35.595Z,11.46
2018-06-18T01:52:30.522Z,10.49
2018-06-18T01:58:25.522Z,14.62
2018-06-18T02:04:20.495Z,15.44
2018-06-18T02:10:15.498Z,11.87
2018-06-18T02:16:10.507Z,11.99
2018-06-18T02:22:05.540Z,10.59
2018-06-18T02:28:00.547Z,14.52
2018-06-18T02:33:55.600Z,12.78
2018-06-18T02:39:50.578Z,14.56
2018-06-18T02:45:45.532Z,12
2018-06-18T02:51:40.533Z,13.51
2018-06-18T02:57:35.599Z,11.96
2018-06-18T03:03:30.593Z,11.04
2018-06-18T03:09:25.559Z,11
2018-06-18T03:15:20.546Z,11.48
2018-06-18T03:21:15.537Z,11.06
2018-06-18T03:27:10.604Z,12.86
2018-06-18T03:33:05.603Z,13.62
2018-06-18T03:39:00.539Z,10.67
2018-06-18T03:44:55.632Z,13.47
2018-06-18T03:50:50.610Z,12.02
2018-06-18T03:56:45.644Z,13
2018-06-18T04:02:40.570Z,12.23
2018-06-18T04:08:35.596Z,11.05
2018-06-18T04:14:30.595Z,16.2
2018-06-18T04:20:25.590Z,12.34
2018-06-18T04:26:20.668Z,11.56
2018-06-18T04:32:15.655Z,10.97
2018-06-18T04:38:10.588Z,13.11
2018-06-18T04:44:05.737Z,10.89
2018-06-18T04:50:00.587Z,12.71
2018-06-18T04:55:55.661Z,14.54
2018-06-18T05:01:50.685Z,13.17
2018-06-18T05:07:45.703Z,14.67
2018-06-18T05:13:40.615Z,16.23
2018-06-18T05:19:35.661Z,12.24
2018-06-18T05:25:30.666Z,13.63
2018-06-18T05:31:25.709Z,14
2018-06-18T05:37:20.676Z,14.82
2018-06-18T05:43:15.664Z,15.89
2018-06-18T05:49:10.704Z,13.75
2018-06-18T05:55:05.652Z,12.18
2018-06-18T06:01:00.733Z,13.23
2018-06-18T06:06:55.785Z,10.03
2018-06-18T06:12:50.710Z,10.98
2018-06-18T06:18:45.707Z,11.93
2018-06-18T06:24:40.702Z,11.91
2018-06-18T06:30:35.677Z,10.5
2018-06-18T06:36:30.698Z,10.44
2018-06-18T06:42:25.703Z,10.03
2018-06-18T06:48:20.757Z,11.37
2018-06-18T06:54:15.696Z,10.84
2018-06-18T07:00:10.732Z,9.18
2018-06-18T07:06:05.715Z,10.63
2018-06-18T07:12:00.760Z,10.19
2018-06-18T07:17:55.762Z,7.55
2018-06-18T07:23:50.727Z,8.25
2018-06-18T07:29:45.733Z,7.22
2018-06-18T07:35:40.732Z,4.12
2018-06-18T07:41:35.777Z,3.47
2018-06-18T07:47:30.735Z,4.69
2018-06-18T07:53:25.747Z,5.78
2018-06-18T07:59:20.774Z,4.13
2018-06-18T08:05:15.780Z,4.9
2018-06-18T08:11:10.762Z,5.08
2018-06-18T08:17:05.756Z,4.61
2018-06-18T08:23:00.768Z,6.3
2018-06-18T08:28:55.814Z,8.01
2018-06-18T08:34:50.769Z,5.42
2018-06-18T08:40:45.825Z,6.79
2018-06-18T08:46:40.789Z,5.81
2018-06-18T08:52:35.809Z,6.79
2018-06-18T08:58:30.804Z,5.8
2018-06-18T09:04:25.814Z,6.79
2018-06-18T09:10:20.828Z,6.04
2018-06-18T09:16:15.825Z,6.26
2018-06-18T09:22:10.817Z,6.8
2018-06-18T09:28:05.867Z,6.65
2018-06-18T09:34:00.877Z,9.8
2018-06-18T09:39:55.811Z,6.71
2018-06-18T09:45:50.878Z,6.93
2018-06-18T09:51:45.850Z,5.39
2018-06-18T09:57:40.832Z,7.56
2018-06-18T10:03:35.890Z,6.77
2018-06-18T10:09:30.891Z,6.67
2018-06-18T10:15:25.838Z,6.94
2018-06-18T10:21:20.885Z,7.53
2018-06-18T10:27:15.891Z,7.09
2018-06-18T10:33:10.868Z,7.26
2018-06-18T10:39:05.851Z,7.67
2018-06-18T10:45:00.863Z,6.51
2018-06-18T10:50:55.909Z,6.85
2018-06-18T10:56:50.899Z,8.38
2018-06-18T11:02:45.881Z,6.59
2018-06-18T11:08:40.899Z,6.17
2018-06-18T11:14:35.877Z,6.09
2018-06-18T11:20:30.883Z,6.52
2018-06-18T11:26:26.059Z,6.76
2018-06-18T11:32:21.046Z,6.21
2018-06-18T11:38:15.907Z,6.4
2018-06-18T11:44:10.898Z,5.55
2018-06-18T11:50:05.930Z,6.05
2018-06-18T11:56:00.932Z,4.69
2018-06-18T12:01:56.009Z,4.92
2018-06-18T12:07:50.917Z,4.93
2018-06-18T12:13:45.938Z,4.61
2018-06-18T12:19:40.933Z,9.07
2018-06-18T12:25:35.997Z,4.83
2018-06-18T12:31:30.927Z,4.38
2018-06-18T12:37:25.944Z,5.97
2018-06-18T12:43:21.011Z,5.94
2018-06-18T12:49:15.948Z,8.37
2018-06-18T12:55:11.017Z,6.22
2018-06-18T13:01:05.984Z,4.82
2018-06-18T13:07:00.988Z,5.68
2018-06-18T13:12:56.041Z,6.01
2018-06-18T13:18:50.997Z,5.52
2018-06-18T13:24:46.027Z,6.16
2018-06-18T13:30:40.990Z,5.51
2018-06-18T13:36:36.009Z,7.03
2018-06-18T13:42:31.056Z,4.87
2018-06-18T13:48:25.998Z,4.72
2018-06-18T13:54:21.042Z,4.25
2018-06-18T14:00:15.999Z,5.27
2018-06-18T14:06:11.044Z,3.82
2018-06-18T14:12:06.049Z,4.73
2018-06-18T14:18:01.083Z,3.95
2018-06-18T14:23:56.082Z,5.12
2018-06-18T14:29:51.058Z,3.92
2018-06-18T14:35:46.086Z,4.43
2018-06-18T14:41:41.100Z,4.36
2018-06-18T14:47:36.090Z,3.64
2018-06-18T14:53:31.101Z,3.98
2018-06-18T14:59:26.078Z,3.89
2018-06-18T15:05:21.061Z,4
2018-06-18T15:11:16.163Z,4.53
2018-06-18T15:17:11.124Z,4.05
2018-06-18T15:23:06.122Z,4.56
2018-06-18T15:29:01.082Z,4.31
2018-06-18T15:34:56.125Z,3.98
2018-06-18T15:40:51.151Z,4.56
2018-06-18T15:46:46.099Z,4.95
2018-06-18T15:52:41.083Z,4.48
2018-06-18T15:58:36.092Z,5.3
2018-06-18T16:04:31.138Z,6.34
2018-06-18T16:10:26.142Z,4.46
2018-06-18T16:16:21.127Z,5.89
2018-06-18T16:22:16.134Z,4.76
2018-06-18T16:28:11.111Z,4.45
2018-06-18T16:34:06.137Z,4.85
2018-06-18T16:40:01.184Z,4.8
2018-06-18T16:45:56.146Z,5.47
2018-06-18T16:51:51.127Z,5.34
2018-06-18T16:57:46.145Z,5.77
2018-06-18T17:03:41.203Z,5.15
2018-06-18T17:09:36.237Z,5.61
2018-06-18T17:15:31.188Z,7.09
2018-06-18T17:21:26.186Z,6
2018-06-18T17:27:21.216Z,7.76
2018-06-18T17:33:16.173Z,5.92
2018-06-18T17:39:11.206Z,7.38
2018-06-18T17:45:06.201Z,6.69
2018-06-18T17:51:01.281Z,6.47
2018-06-18T17:56:56.219Z,7.18
2018-06-18T18:02:51.245Z,8.47
2018-06-18T18:08:46.212Z,6.74
2018-06-18T18:14:41.233Z,6.05
2018-06-18T18:20:36.234Z,8.83
2018-06-18T18:26:31.245Z,6.5
2018-06-18T18:32:26.287Z,7.25
2018-06-18T18:38:21.255Z,6.53
2018-06-18T18:44:16.238Z,6.85
2018-06-18T18:50:11.264Z,6.78
2018-06-18T18:56:06.258Z,7.5
2018-06-18T19:02:01.294Z,9.92
2018-06-18T19:07:56.236Z,6.37
2018-06-18T19:13:51.287Z,6.76
2018-06-18T19:19:46.253Z,6.99
2018-06-18T19:25:41.324Z,9.38
2018-06-18T19:31:36.418Z,8.42
2018-06-18T19:37:31.309Z,7.38
2018-06-18T19:43:26.319Z,9.68
2018-06-18T19:49:21.308Z,6.91
2018-06-18T19:55:16.349Z,8.21
2018-06-18T20:01:11.293Z,7.34
2018-06-18T20:07:06.350Z,7.46
2018-06-18T20:13:01.381Z,9.04
2018-06-18T20:18:56.346Z,6.56
2018-06-18T20:24:51.293Z,6.4
2018-06-18T20:30:46.308Z,7.16
2018-06-18T20:36:41.353Z,5.87
2018-06-18T20:42:36.347Z,6.64
2018-06-18T20:48:31.364Z,8.62
2018-06-18T20:54:26.353Z,7.11
2018-06-18T21:00:21.359Z,8.65
2018-06-18T21:06:16.319Z,10.14
2018-06-18T21:12:11.364Z,6.96
2018-06-18T21:18:06.351Z,7.78
2018-06-18T21:24:01.330Z,8.17
2018-06-18T21:29:56.345Z,7.85
2018-06-18T21:35:51.342Z,8.24
2018-06-18T21:41:46.408Z,8.57
2018-06-18T21:47:41.373Z,8.77
2018-06-18T21:53:36.409Z,9.63
2018-06-18T21:59:31.356Z,8.48
2018-06-18T22:05:26.383Z,8.14
2018-06-18T22:11:21.408Z,9.07
2018-06-18T22:17:16.447Z,8.63
2018-06-18T22:23:11.401Z,8.77
2018-06-18T22:29:06.431Z,7.9
2018-06-18T22:35:01.416Z,8.12
2018-06-18T22:40:56.398Z,6.91
2018-06-18T22:46:51.410Z,8.84
2018-06-18T22:52:46.477Z,9.29
2018-06-18T22:58:41.397Z,9.09
2018-06-18T23:04:36.510Z,9.93
2018-06-18T23:10:31.450Z,10.18
2018-06-18T23:16:26.438Z,9
2018-06-18T23:22:21.450Z,8.85
2018-06-18T23:28:16.458Z,9.85
2018-06-18T23:34:11.461Z,9.53
2018-06-18T23:40:06.427Z,9
2018-06-18T23:46:01.446Z,9.97
2018-06-18T23:51:56.482Z,10.21
2018-06-18T23:57:51.506Z,12.07
